sensor_id;sensor_type;location;lat;lon;timestamp;P1;durP1;ratioP1;P2;durP2;ratioP2
23608;SDS011;11982;50.810;4.442;2023-02-22T00:00:35;90.00;;;33.10;;
23608;SDS011;11982;50.810;4.442;2023-02-22T00:03:18;116.20;;;36.20;;
23608;SDS011;11982;50.810;4.442;2023-02-22T00:05:55;96.67;;;34.00;;
23608;SDS011;11982;50.810;4.442;2023-02-22T00:08:29;222.93;;;35.03;;
23608;SDS011;11982;50.810;4.442;2023-02-22T00:10:56;96.38;;;34.90;;
23608;SDS011;11982;50.810;4.442;2023-02-22T00:13:26;87.57;;;33.63;;
23608;SDS011;11982;50.810;4.442;2023-02-22T00:15:53;98.43;;;33.05;;
23608;SDS011;11982;50.810;4.442;2023-02-22T00:18:20;82.68;;;34.00;;
23608;SDS011;11982;50.810;4.442;2023-02-22T00:20:45;110.05;;;34.58;;
23608;SDS011;11982;50.810;4.442;2023-02-22T00:23:13;83.35;;;32.78;;
23608;SDS011;11982;50.810;4.442;2023-02-22T00:25:42;125.80;;;32.33;;
23608;SDS011;11982;50.810;4.442;2023-02-22T00:28:09;90.22;;;32.10;;
23608;SDS011;11982;50.810;4.442;2023-02-22T00:30:34;73.13;;;31.15;;
23608;SDS011;11982;50.810;4.442;2023-02-22T00:33:00;130.95;;;32.70;;
23608;SDS011;11982;50.810;4.442;2023-02-22T00:35:27;76.35;;;30.35;;
23608;SDS011;11982;50.810;4.442;2023-02-22T00:37:55;92.15;;;30.15;;
23608;SDS011;11982;50.810;4.442;2023-02-22T00:40:26;84.28;;;29.73;;
23608;SDS011;11982;50.810;4.442;2023-02-22T00:42:54;99.22;;;30.65;;
23608;SDS011;11982;50.810;4.442;2023-02-22T00:45:22;91.80;;;30.20;;
23608;SDS011;11982;50.810;4.442;2023-02-22T00:47:49;82.75;;;30.20;;
23608;SDS011;11982;50.810;4.442;2023-02-22T00:50:16;87.63;;;31.17;;
23608;SDS011;11982;50.810;4.442;2023-02-22T00:52:42;86.70;;;30.10;;
23608;SDS011;11982;50.810;4.442;2023-02-22T00:55:10;111.05;;;32.58;;
23608;SDS011;11982;50.810;4.442;2023-02-22T00:57:41;93.28;;;29.75;;
23608;SDS011;11982;50.810;4.442;2023-02-22T01:00:07;142.15;;;32.33;;
23608;SDS011;11982;50.810;4.442;2023-02-22T01:02:38;71.78;;;27.48;;
23608;SDS011;11982;50.810;4.442;2023-02-22T01:05:05;88.57;;;29.17;;
23608;SDS011;11982;50.810;4.442;2023-02-22T01:07:32;114.15;;;28.38;;
23608;SDS011;11982;50.810;4.442;2023-02-22T01:09:58;92.68;;;30.55;;
23608;SDS011;11982;50.810;4.442;2023-02-22T01:12:25;101.57;;;30.00;;
23608;SDS011;11982;50.810;4.442;2023-02-22T01:14:52;106.90;;;29.52;;
23608;SDS011;11982;50.810;4.442;2023-02-22T01:17:21;88.05;;;29.15;;
23608;SDS011;11982;50.810;4.442;2023-02-22T01:19:47;81.82;;;29.92;;
23608;SDS011;11982;50.810;4.442;2023-02-22T01:22:13;101.20;;;29.25;;
23608;SDS011;11982;50.810;4.442;2023-02-22T01:24:38;101.75;;;29.33;;
23608;SDS011;11982;50.810;4.442;2023-02-22T01:27:04;68.90;;;28.05;;
23608;SDS011;11982;50.810;4.442;2023-02-22T01:29:30;69.05;;;26.35;;
23608;SDS011;11982;50.810;4.442;2023-02-22T01:31:56;56.83;;;26.75;;
23608;SDS011;11982;50.810;4.442;2023-02-22T01:34:22;65.10;;;27.25;;
23608;SDS011;11982;50.810;4.442;2023-02-22T01:36:50;60.20;;;26.33;;
23608;SDS011;11982;50.810;4.442;2023-02-22T01:39:16;64.90;;;26.75;;
23608;SDS011;11982;50.810;4.442;2023-02-22T01:41:45;51.47;;;25.20;;
23608;SDS011;11982;50.810;4.442;2023-02-22T01:47:00;55.53;;;27.60;;
23608;SDS011;11982;50.810;4.442;2023-02-22T01:49:36;52.50;;;25.20;;
23608;SDS011;11982;50.810;4.442;2023-02-22T01:52:06;49.47;;;26.27;;
23608;SDS011;11982;50.810;4.442;2023-02-22T01:55:07;46.88;;;24.77;;
23608;SDS011;11982;50.810;4.442;2023-02-22T01:57:32;45.25;;;23.88;;
23608;SDS011;11982;50.810;4.442;2023-02-22T02:00:03;43.30;;;22.70;;
23608;SDS011;11982;50.810;4.442;2023-02-22T02:02:38;46.10;;;24.45;;
23608;SDS011;11982;50.810;4.442;2023-02-22T02:05:07;46.92;;;24.55;;
23608;SDS011;11982;50.810;4.442;2023-02-22T02:07:36;43.28;;;22.35;;
23608;SDS011;11982;50.810;4.442;2023-02-22T02:10:07;46.13;;;23.60;;
23608;SDS011;11982;50.810;4.442;2023-02-22T02:12:38;39.05;;;22.00;;
23608;SDS011;11982;50.810;4.442;2023-02-22T02:15:17;42.40;;;22.05;;
23608;SDS011;11982;50.810;4.442;2023-02-22T02:17:54;43.08;;;23.10;;
23608;SDS011;11982;50.810;4.442;2023-02-22T02:20:45;42.55;;;22.75;;
23608;SDS011;11982;50.810;4.442;2023-02-22T02:23:31;40.92;;;23.38;;
23608;SDS011;11982;50.810;4.442;2023-02-22T02:38:25;40.70;;;21.42;;
23608;SDS011;11982;50.810;4.442;2023-02-22T02:41:14;35.53;;;20.70;;
23608;SDS011;11982;50.810;4.442;2023-02-22T02:46:23;36.95;;;21.38;;
23608;SDS011;11982;50.810;4.442;2023-02-22T02:48:59;41.60;;;23.00;;
23608;SDS011;11982;50.810;4.442;2023-02-22T02:51:31;39.05;;;22.05;;
23608;SDS011;11982;50.810;4.442;2023-02-22T02:54:01;40.97;;;22.38;;
23608;SDS011;11982;50.810;4.442;2023-02-22T02:56:28;39.50;;;21.13;;
23608;SDS011;11982;50.810;4.442;2023-02-22T02:58:55;38.67;;;22.13;;
23608;SDS011;11982;50.810;4.442;2023-02-22T03:07:14;38.38;;;21.80;;
23608;SDS011;11982;50.810;4.442;2023-02-22T03:12:24;43.13;;;21.05;;
23608;SDS011;11982;50.810;4.442;2023-02-22T03:22:36;39.85;;;20.95;;
23608;SDS011;11982;50.810;4.442;2023-02-22T03:28:15;40.20;;;21.67;;
23608;SDS011;11982;50.810;4.442;2023-02-22T03:30:45;41.38;;;21.48;;
23608;SDS011;11982;50.810;4.442;2023-02-22T03:33:19;39.53;;;21.15;;
23608;SDS011;11982;50.810;4.442;2023-02-22T03:36:18;33.47;;;19.05;;
23608;SDS011;11982;50.810;4.442;2023-02-22T03:38:51;39.40;;;21.52;;
23608;SDS011;11982;50.810;4.442;2023-02-22T03:41:20;44.35;;;22.45;;
23608;SDS011;11982;50.810;4.442;2023-02-22T03:43:49;41.97;;;21.40;;
23608;SDS011;11982;50.810;4.442;2023-02-22T03:46:44;42.90;;;22.00;;
23608;SDS011;11982;50.810;4.442;2023-02-22T03:49:34;40.72;;;21.75;;
23608;SDS011;11982;50.810;4.442;2023-02-22T03:52:21;43.45;;;21.85;;
23608;SDS011;11982;50.810;4.442;2023-02-22T03:54:48;40.17;;;21.40;;
23608;SDS011;11982;50.810;4.442;2023-02-22T03:57:24;43.13;;;22.85;;
23608;SDS011;11982;50.810;4.442;2023-02-22T03:59:53;42.85;;;21.92;;
23608;SDS011;11982;50.810;4.442;2023-02-22T04:02:19;37.05;;;21.17;;
23608;SDS011;11982;50.810;4.442;2023-02-22T04:04:45;40.05;;;21.92;;
23608;SDS011;11982;50.810;4.442;2023-02-22T04:07:11;39.63;;;20.60;;
23608;SDS011;11982;50.810;4.442;2023-02-22T04:09:37;37.33;;;21.05;;
23608;SDS011;11982;50.810;4.442;2023-02-22T04:12:03;40.80;;;21.30;;
23608;SDS011;11982;50.810;4.442;2023-02-22T04:14:29;39.70;;;20.27;;
23608;SDS011;11982;50.810;4.442;2023-02-22T04:16:54;38.95;;;20.60;;
23608;SDS011;11982;50.810;4.442;2023-02-22T04:19:20;36.00;;;19.77;;
23608;SDS011;11982;50.810;4.442;2023-02-22T04:21:48;40.65;;;21.55;;
23608;SDS011;11982;50.810;4.442;2023-02-22T04:24:14;38.78;;;21.13;;
23608;SDS011;11982;50.810;4.442;2023-02-22T04:26:40;36.95;;;21.13;;
23608;SDS011;11982;50.810;4.442;2023-02-22T04:29:06;37.13;;;20.25;;
23608;SDS011;11982;50.810;4.442;2023-02-22T04:31:32;38.03;;;20.90;;
23608;SDS011;11982;50.810;4.442;2023-02-22T04:33:58;37.17;;;20.50;;
23608;SDS011;11982;50.810;4.442;2023-02-22T04:36:25;35.63;;;19.70;;
23608;SDS011;11982;50.810;4.442;2023-02-22T04:38:51;38.67;;;20.55;;
23608;SDS011;11982;50.810;4.442;2023-02-22T04:41:17;35.70;;;19.73;;
23608;SDS011;11982;50.810;4.442;2023-02-22T04:43:44;37.75;;;20.67;;
23608;SDS011;11982;50.810;4.442;2023-02-22T04:46:10;38.33;;;20.98;;
23608;SDS011;11982;50.810;4.442;2023-02-22T04:48:36;36.65;;;19.98;;
23608;SDS011;11982;50.810;4.442;2023-02-22T04:51:02;40.88;;;20.80;;
23608;SDS011;11982;50.810;4.442;2023-02-22T04:53:29;33.53;;;20.05;;
23608;SDS011;11982;50.810;4.442;2023-02-22T04:55:54;36.42;;;20.42;;
23608;SDS011;11982;50.810;4.442;2023-02-22T04:58:20;33.53;;;19.40;;
23608;SDS011;11982;50.810;4.442;2023-02-22T05:00:46;37.47;;;20.85;;
23608;SDS011;11982;50.810;4.442;2023-02-22T05:03:12;37.70;;;19.13;;
23608;SDS011;11982;50.810;4.442;2023-02-22T05:05:38;34.53;;;19.70;;
23608;SDS011;11982;50.810;4.442;2023-02-22T05:08:03;34.85;;;19.98;;
23608;SDS011;11982;50.810;4.442;2023-02-22T05:10:29;38.15;;;20.25;;
23608;SDS011;11982;50.810;4.442;2023-02-22T05:12:55;34.33;;;19.55;;
23608;SDS011;11982;50.810;4.442;2023-02-22T05:15:21;36.08;;;19.58;;
23608;SDS011;11982;50.810;4.442;2023-02-22T05:17:49;32.72;;;18.27;;
23608;SDS011;11982;50.810;4.442;2023-02-22T05:20:16;38.05;;;20.05;;
23608;SDS011;11982;50.810;4.442;2023-02-22T05:22:57;38.50;;;19.65;;
23608;SDS011;11982;50.810;4.442;2023-02-22T05:25:24;34.40;;;19.42;;
23608;SDS011;11982;50.810;4.442;2023-02-22T05:27:54;32.63;;;19.02;;
23608;SDS011;11982;50.810;4.442;2023-02-22T05:30:30;35.15;;;19.05;;
23608;SDS011;11982;50.810;4.442;2023-02-22T05:32:58;32.47;;;18.45;;
23608;SDS011;11982;50.810;4.442;2023-02-22T05:35:24;31.02;;;18.58;;
23608;SDS011;11982;50.810;4.442;2023-02-22T05:37:50;33.28;;;18.58;;
23608;SDS011;11982;50.810;4.442;2023-02-22T05:40:20;29.55;;;18.02;;
23608;SDS011;11982;50.810;4.442;2023-02-22T05:42:48;30.92;;;18.27;;
23608;SDS011;11982;50.810;4.442;2023-02-22T05:45:15;32.15;;;18.30;;
23608;SDS011;11982;50.810;4.442;2023-02-22T05:47:42;31.80;;;17.83;;
23608;SDS011;11982;50.810;4.442;2023-02-22T05:50:08;28.92;;;17.77;;
23608;SDS011;11982;50.810;4.442;2023-02-22T05:52:34;31.52;;;18.05;;
23608;SDS011;11982;50.810;4.442;2023-02-22T05:55:00;32.95;;;18.27;;
23608;SDS011;11982;50.810;4.442;2023-02-22T05:57:26;27.50;;;17.02;;
23608;SDS011;11982;50.810;4.442;2023-02-22T05:59:51;30.30;;;18.13;;
23608;SDS011;11982;50.810;4.442;2023-02-22T06:02:17;27.83;;;17.17;;
23608;SDS011;11982;50.810;4.442;2023-02-22T06:04:43;31.45;;;17.45;;
23608;SDS011;11982;50.810;4.442;2023-02-22T06:07:10;30.33;;;17.27;;
23608;SDS011;11982;50.810;4.442;2023-02-22T06:09:37;30.58;;;17.63;;
23608;SDS011;11982;50.810;4.442;2023-02-22T06:12:03;30.65;;;17.90;;
23608;SDS011;11982;50.810;4.442;2023-02-22T06:14:29;31.05;;;17.67;;
23608;SDS011;11982;50.810;4.442;2023-02-22T06:16:55;27.70;;;17.08;;
23608;SDS011;11982;50.810;4.442;2023-02-22T06:19:21;31.33;;;18.13;;
23608;SDS011;11982;50.810;4.442;2023-02-22T06:21:48;28.67;;;16.63;;
23608;SDS011;11982;50.810;4.442;2023-02-22T06:24:18;33.22;;;17.45;;
23608;SDS011;11982;50.810;4.442;2023-02-22T06:26:44;29.35;;;16.60;;
23608;SDS011;11982;50.810;4.442;2023-02-22T06:29:10;27.95;;;16.98;;
23608;SDS011;11982;50.810;4.442;2023-02-22T06:31:36;29.38;;;17.63;;
23608;SDS011;11982;50.810;4.442;2023-02-22T06:34:02;27.10;;;16.65;;
23608;SDS011;11982;50.810;4.442;2023-02-22T06:36:28;27.63;;;16.25;;
23608;SDS011;11982;50.810;4.442;2023-02-22T06:38:57;31.95;;;17.48;;
23608;SDS011;11982;50.810;4.442;2023-02-22T06:41:22;28.60;;;17.13;;
23608;SDS011;11982;50.810;4.442;2023-02-22T06:43:48;29.83;;;17.08;;
23608;SDS011;11982;50.810;4.442;2023-02-22T06:46:14;27.98;;;17.40;;
23608;SDS011;11982;50.810;4.442;2023-02-22T06:48:40;31.83;;;17.80;;
23608;SDS011;11982;50.810;4.442;2023-02-22T06:51:08;35.58;;;17.95;;
23608;SDS011;11982;50.810;4.442;2023-02-22T06:53:34;35.10;;;18.70;;
23608;SDS011;11982;50.810;4.442;2023-02-22T06:56:00;31.33;;;17.58;;
23608;SDS011;11982;50.810;4.442;2023-02-22T06:58:26;26.65;;;16.45;;
23608;SDS011;11982;50.810;4.442;2023-02-22T07:00:52;28.58;;;16.65;;
23608;SDS011;11982;50.810;4.442;2023-02-22T07:03:18;26.95;;;16.77;;
23608;SDS011;11982;50.810;4.442;2023-02-22T07:05:44;29.48;;;16.65;;
23608;SDS011;11982;50.810;4.442;2023-02-22T07:08:10;28.38;;;16.83;;
23608;SDS011;11982;50.810;4.442;2023-02-22T07:10:36;31.15;;;17.13;;
23608;SDS011;11982;50.810;4.442;2023-02-22T07:13:04;27.83;;;16.67;;
23608;SDS011;11982;50.810;4.442;2023-02-22T07:15:31;33.15;;;17.83;;
23608;SDS011;11982;50.810;4.442;2023-02-22T07:17:58;35.65;;;17.92;;
23608;SDS011;11982;50.810;4.442;2023-02-22T07:20:24;32.00;;;17.55;;
23608;SDS011;11982;50.810;4.442;2023-02-22T07:22:51;31.70;;;16.90;;
23608;SDS011;11982;50.810;4.442;2023-02-22T07:25:17;30.20;;;17.13;;
23608;SDS011;11982;50.810;4.442;2023-02-22T07:27:43;27.95;;;17.38;;
23608;SDS011;11982;50.810;4.442;2023-02-22T07:30:17;28.17;;;16.42;;
23608;SDS011;11982;50.810;4.442;2023-02-22T07:32:43;37.10;;;18.15;;
23608;SDS011;11982;50.810;4.442;2023-02-22T07:35:13;29.48;;;16.70;;
23608;SDS011;11982;50.810;4.442;2023-02-22T07:37:43;25.83;;;15.88;;
23608;SDS011;11982;50.810;4.442;2023-02-22T07:40:10;27.65;;;16.42;;
23608;SDS011;11982;50.810;4.442;2023-02-22T07:45:22;35.17;;;17.23;;
23608;SDS011;11982;50.810;4.442;2023-02-22T07:47:49;29.50;;;16.48;;
23608;SDS011;11982;50.810;4.442;2023-02-22T07:50:16;27.55;;;16.10;;
23608;SDS011;11982;50.810;4.442;2023-02-22T07:52:44;28.60;;;16.40;;
23608;SDS011;11982;50.810;4.442;2023-02-22T07:55:10;28.63;;;16.77;;
23608;SDS011;11982;50.810;4.442;2023-02-22T07:57:37;26.67;;;16.92;;
23608;SDS011;11982;50.810;4.442;2023-02-22T08:00:03;27.48;;;16.38;;
23608;SDS011;11982;50.810;4.442;2023-02-22T08:02:29;22.52;;;15.18;;
23608;SDS011;11982;50.810;4.442;2023-02-22T08:04:54;28.70;;;16.08;;
23608;SDS011;11982;50.810;4.442;2023-02-22T08:07:20;26.08;;;15.80;;
23608;SDS011;11982;50.810;4.442;2023-02-22T08:09:46;22.92;;;14.60;;
23608;SDS011;11982;50.810;4.442;2023-02-22T08:12:11;24.10;;;15.52;;
23608;SDS011;11982;50.810;4.442;2023-02-22T08:14:37;24.83;;;15.55;;
23608;SDS011;11982;50.810;4.442;2023-02-22T08:17:02;23.63;;;15.05;;
23608;SDS011;11982;50.810;4.442;2023-02-22T08:19:28;25.23;;;15.25;;
23608;SDS011;11982;50.810;4.442;2023-02-22T08:21:54;28.90;;;15.63;;
23608;SDS011;11982;50.810;4.442;2023-02-22T08:24:19;24.15;;;15.50;;
23608;SDS011;11982;50.810;4.442;2023-02-22T08:26:45;23.13;;;15.00;;
23608;SDS011;11982;50.810;4.442;2023-02-22T08:29:11;29.20;;;17.25;;
23608;SDS011;11982;50.810;4.442;2023-02-22T08:31:38;33.75;;;16.88;;
23608;SDS011;11982;50.810;4.442;2023-02-22T08:34:05;25.35;;;15.80;;
23608;SDS011;11982;50.810;4.442;2023-02-22T08:36:30;30.50;;;16.58;;
23608;SDS011;11982;50.810;4.442;2023-02-22T08:38:58;28.08;;;17.88;;
23608;SDS011;11982;50.810;4.442;2023-02-22T08:41:24;27.85;;;17.20;;
23608;SDS011;11982;50.810;4.442;2023-02-22T08:43:49;34.35;;;17.48;;
23608;SDS011;11982;50.810;4.442;2023-02-22T08:46:16;31.17;;;17.35;;
23608;SDS011;11982;50.810;4.442;2023-02-22T08:48:48;28.50;;;16.75;;
23608;SDS011;11982;50.810;4.442;2023-02-22T08:51:15;29.33;;;16.90;;
23608;SDS011;11982;50.810;4.442;2023-02-22T08:53:40;27.80;;;15.57;;
23608;SDS011;11982;50.810;4.442;2023-02-22T08:56:06;31.17;;;17.50;;
23608;SDS011;11982;50.810;4.442;2023-02-22T08:58:32;31.00;;;16.45;;
23608;SDS011;11982;50.810;4.442;2023-02-22T09:00:58;28.13;;;16.20;;
23608;SDS011;11982;50.810;4.442;2023-02-22T09:03:24;25.95;;;15.38;;
23608;SDS011;11982;50.810;4.442;2023-02-22T09:05:50;35.83;;;18.20;;
23608;SDS011;11982;50.810;4.442;2023-02-22T09:08:15;31.20;;;17.25;;
23608;SDS011;11982;50.810;4.442;2023-02-22T09:10:41;35.35;;;18.02;;
23608;SDS011;11982;50.810;4.442;2023-02-22T09:13:09;30.00;;;16.60;;
23608;SDS011;11982;50.810;4.442;2023-02-22T09:15:35;29.55;;;16.75;;
23608;SDS011;11982;50.810;4.442;2023-02-22T09:18:01;29.23;;;16.38;;
23608;SDS011;11982;50.810;4.442;2023-02-22T09:20:28;33.67;;;17.52;;
23608;SDS011;11982;50.810;4.442;2023-02-22T09:22:54;30.40;;;18.25;;
23608;SDS011;11982;50.810;4.442;2023-02-22T09:25:20;36.95;;;18.95;;
23608;SDS011;11982;50.810;4.442;2023-02-22T09:27:47;34.22;;;18.58;;
23608;SDS011;11982;50.810;4.442;2023-02-22T09:30:21;32.70;;;18.83;;
23608;SDS011;11982;50.810;4.442;2023-02-22T09:32:52;33.25;;;19.40;;
23608;SDS011;11982;50.810;4.442;2023-02-22T09:35:20;33.83;;;17.52;;
23608;SDS011;11982;50.810;4.442;2023-02-22T09:37:51;32.45;;;18.25;;
23608;SDS011;11982;50.810;4.442;2023-02-22T09:40:17;33.92;;;18.27;;
23608;SDS011;11982;50.810;4.442;2023-02-22T09:42:52;38.40;;;19.75;;
23608;SDS011;11982;50.810;4.442;2023-02-22T09:48:01;35.95;;;19.40;;
23608;SDS011;11982;50.810;4.442;2023-02-22T09:50:39;37.42;;;21.40;;
23608;SDS011;11982;50.810;4.442;2023-02-22T09:53:23;36.33;;;21.65;;
23608;SDS011;11982;50.810;4.442;2023-02-22T09:56:21;38.03;;;22.08;;
23608;SDS011;11982;50.810;4.442;2023-02-22T09:58:48;36.63;;;20.70;;
23608;SDS011;11982;50.810;4.442;2023-02-22T10:04:00;41.58;;;21.90;;
23608;SDS011;11982;50.810;4.442;2023-02-22T10:07:29;36.03;;;21.15;;
23608;SDS011;11982;50.810;4.442;2023-02-22T10:09:44;32.05;;;21.13;;
23608;SDS011;11982;50.810;4.442;2023-02-22T10:12:24;38.47;;;22.20;;
23608;SDS011;11982;50.810;4.442;2023-02-22T10:17:38;39.28;;;22.63;;
23608;SDS011;11982;50.810;4.442;2023-02-22T10:25:41;36.42;;;22.30;;
23608;SDS011;11982;50.810;4.442;2023-02-22T10:30:36;38.20;;;23.10;;
23608;SDS011;11982;50.810;4.442;2023-02-22T10:33:11;46.92;;;24.02;;
23608;SDS011;11982;50.810;4.442;2023-02-22T10:35:45;42.30;;;23.73;;
23608;SDS011;11982;50.810;4.442;2023-02-22T10:38:13;40.47;;;23.20;;
23608;SDS011;11982;50.810;4.442;2023-02-22T10:41:01;39.72;;;24.25;;
23608;SDS011;11982;50.810;4.442;2023-02-22T10:43:27;37.63;;;24.05;;
23608;SDS011;11982;50.810;4.442;2023-02-22T10:45:56;44.22;;;25.27;;
23608;SDS011;11982;50.810;4.442;2023-02-22T10:48:27;40.95;;;24.92;;
23608;SDS011;11982;50.810;4.442;2023-02-22T10:50:59;44.13;;;26.17;;
23608;SDS011;11982;50.810;4.442;2023-02-22T10:53:28;40.35;;;25.67;;
23608;SDS011;11982;50.810;4.442;2023-02-22T10:56:15;43.33;;;26.77;;
23608;SDS011;11982;50.810;4.442;2023-02-22T10:58:46;45.63;;;27.52;;
23608;SDS011;11982;50.810;4.442;2023-02-22T11:01:17;44.03;;;27.15;;
23608;SDS011;11982;50.810;4.442;2023-02-22T11:03:44;49.38;;;27.88;;
23608;SDS011;11982;50.810;4.442;2023-02-22T11:06:20;47.70;;;28.17;;
23608;SDS011;11982;50.810;4.442;2023-02-22T11:08:45;43.35;;;28.13;;
23608;SDS011;11982;50.810;4.442;2023-02-22T11:11:22;42.38;;;27.73;;
23608;SDS011;11982;50.810;4.442;2023-02-22T11:13:55;45.40;;;28.55;;
23608;SDS011;11982;50.810;4.442;2023-02-22T11:16:31;43.22;;;27.25;;
23608;SDS011;11982;50.810;4.442;2023-02-22T11:21:39;49.30;;;28.88;;
23608;SDS011;11982;50.810;4.442;2023-02-22T11:24:09;45.05;;;29.30;;
23608;SDS011;11982;50.810;4.442;2023-02-22T11:26:40;46.55;;;28.38;;
23608;SDS011;11982;50.810;4.442;2023-02-22T11:29:11;46.03;;;29.90;;
23608;SDS011;11982;50.810;4.442;2023-02-22T11:31:41;46.42;;;30.15;;
23608;SDS011;11982;50.810;4.442;2023-02-22T11:34:23;49.95;;;29.30;;
23608;SDS011;11982;50.810;4.442;2023-02-22T11:36:56;46.00;;;28.67;;
23608;SDS011;11982;50.810;4.442;2023-02-22T11:39:41;45.30;;;29.65;;
23608;SDS011;11982;50.810;4.442;2023-02-22T11:42:22;52.65;;;29.23;;
23608;SDS011;11982;50.810;4.442;2023-02-22T11:45:06;49.33;;;29.17;;
23608;SDS011;11982;50.810;4.442;2023-02-22T11:47:44;46.58;;;27.88;;
23608;SDS011;11982;50.810;4.442;2023-02-22T11:50:33;48.40;;;29.27;;
23608;SDS011;11982;50.810;4.442;2023-02-22T11:56:03;46.28;;;29.67;;
23608;SDS011;11982;50.810;4.442;2023-02-22T12:01:53;55.17;;;30.27;;
23608;SDS011;11982;50.810;4.442;2023-02-22T12:12:34;49.70;;;29.95;;
23608;SDS011;11982;50.810;4.442;2023-02-22T12:21:08;46.42;;;29.27;;
23608;SDS011;11982;50.810;4.442;2023-02-22T12:23:49;48.47;;;30.42;;
23608;SDS011;11982;50.810;4.442;2023-02-22T12:26:21;47.22;;;29.95;;
23608;SDS011;11982;50.810;4.442;2023-02-22T12:28:57;48.22;;;29.70;;
23608;SDS011;11982;50.810;4.442;2023-02-22T12:31:34;45.50;;;30.25;;
23608;SDS011;11982;50.810;4.442;2023-02-22T12:34:05;45.03;;;29.08;;
23608;SDS011;11982;50.810;4.442;2023-02-22T12:36:42;49.35;;;29.70;;
23608;SDS011;11982;50.810;4.442;2023-02-22T12:41:53;45.55;;;29.48;;
23608;SDS011;11982;50.810;4.442;2023-02-22T12:44:25;47.00;;;29.65;;
23608;SDS011;11982;50.810;4.442;2023-02-22T12:46:56;48.22;;;30.10;;
23608;SDS011;11982;50.810;4.442;2023-02-22T12:49:32;48.72;;;30.15;;
23608;SDS011;11982;50.810;4.442;2023-02-22T12:54:55;50.72;;;31.15;;
23608;SDS011;11982;50.810;4.442;2023-02-22T13:00:04;53.67;;;31.40;;
23608;SDS011;11982;50.810;4.442;2023-02-22T13:05:41;49.50;;;31.42;;
23608;SDS011;11982;50.810;4.442;2023-02-22T13:08:19;52.30;;;33.03;;
23608;SDS011;11982;50.810;4.442;2023-02-22T13:19:02;60.88;;;36.08;;
23608;SDS011;11982;50.810;4.442;2023-02-22T13:26:49;54.45;;;36.65;;
23608;SDS011;11982;50.810;4.442;2023-02-22T13:54:10;63.88;;;39.90;;
23608;SDS011;11982;50.810;4.442;2023-02-22T13:56:41;68.22;;;40.00;;
23608;SDS011;11982;50.810;4.442;2023-02-22T14:02:30;68.25;;;43.80;;
23608;SDS011;11982;50.810;4.442;2023-02-22T14:05:22;65.50;;;41.65;;
23608;SDS011;11982;50.810;4.442;2023-02-22T14:10:47;72.43;;;42.90;;
23608;SDS011;11982;50.810;4.442;2023-02-22T14:13:27;68.43;;;41.67;;
23608;SDS011;11982;50.810;4.442;2023-02-22T14:16:14;62.95;;;40.60;;
23608;SDS011;11982;50.810;4.442;2023-02-22T14:18:43;63.05;;;40.65;;
23608;SDS011;11982;50.810;4.442;2023-02-22T14:23:49;63.65;;;42.95;;
23608;SDS011;11982;50.810;4.442;2023-02-22T14:29:00;74.03;;;43.20;;
23608;SDS011;11982;50.810;4.442;2023-02-22T14:31:33;68.30;;;42.28;;
23608;SDS011;11982;50.810;4.442;2023-02-22T14:36:39;72.90;;;44.28;;
23608;SDS011;11982;50.810;4.442;2023-02-22T14:39:27;76.13;;;45.08;;
23608;SDS011;11982;50.810;4.442;2023-02-22T14:42:09;71.60;;;45.72;;
23608;SDS011;11982;50.810;4.442;2023-02-22T14:50:32;84.20;;;47.08;;
23608;SDS011;11982;50.810;4.442;2023-02-22T14:55:37;85.75;;;50.28;;
23608;SDS011;11982;50.810;4.442;2023-02-22T15:00:43;81.32;;;47.85;;
23608;SDS011;11982;50.810;4.442;2023-02-22T15:06:17;90.00;;;50.90;;
23608;SDS011;11982;50.810;4.442;2023-02-22T15:08:46;82.57;;;49.53;;
23608;SDS011;11982;50.810;4.442;2023-02-22T15:11:26;86.65;;;50.13;;
23608;SDS011;11982;50.810;4.442;2023-02-22T15:14:00;88.07;;;50.13;;
23608;SDS011;11982;50.810;4.442;2023-02-22T15:16:29;87.07;;;52.88;;
23608;SDS011;11982;50.810;4.442;2023-02-22T15:18:58;90.25;;;52.33;;
23608;SDS011;11982;50.810;4.442;2023-02-22T15:21:27;91.85;;;52.88;;
23608;SDS011;11982;50.810;4.442;2023-02-22T15:28:59;93.22;;;54.90;;
23608;SDS011;11982;50.810;4.442;2023-02-22T15:33:52;94.82;;;53.70;;
23608;SDS011;11982;50.810;4.442;2023-02-22T15:36:19;94.93;;;54.58;;
23608;SDS011;11982;50.810;4.442;2023-02-22T15:38:50;93.25;;;54.33;;
23608;SDS011;11982;50.810;4.442;2023-02-22T15:41:37;88.63;;;51.13;;
23608;SDS011;11982;50.810;4.442;2023-02-22T15:44:07;86.72;;;51.08;;
23608;SDS011;11982;50.810;4.442;2023-02-22T15:46:37;90.00;;;50.50;;
23608;SDS011;11982;50.810;4.442;2023-02-22T15:49:16;79.30;;;46.83;;
23608;SDS011;11982;50.810;4.442;2023-02-22T15:51:44;86.28;;;48.72;;
23608;SDS011;11982;50.810;4.442;2023-02-22T15:54:13;83.97;;;46.38;;
23608;SDS011;11982;50.810;4.442;2023-02-22T15:56:40;82.53;;;44.33;;
23608;SDS011;11982;50.810;4.442;2023-02-22T15:59:19;80.57;;;46.15;;
23608;SDS011;11982;50.810;4.442;2023-02-22T16:01:47;82.88;;;43.47;;
23608;SDS011;11982;50.810;4.442;2023-02-22T16:04:16;81.32;;;43.47;;
23608;SDS011;11982;50.810;4.442;2023-02-22T16:06:44;76.03;;;39.20;;
23608;SDS011;11982;50.810;4.442;2023-02-22T16:09:12;84.72;;;44.33;;
23608;SDS011;11982;50.810;4.442;2023-02-22T16:11:47;79.18;;;43.45;;
23608;SDS011;11982;50.810;4.442;2023-02-22T16:17:10;84.10;;;45.83;;
23608;SDS011;11982;50.810;4.442;2023-02-22T16:19:40;82.25;;;43.80;;
23608;SDS011;11982;50.810;4.442;2023-02-22T16:22:30;80.18;;;44.40;;
23608;SDS011;11982;50.810;4.442;2023-02-22T16:25:45;87.07;;;46.80;;
23608;SDS011;11982;50.810;4.442;2023-02-22T16:27:55;84.50;;;46.38;;
23608;SDS011;11982;50.810;4.442;2023-02-22T16:30:30;83.15;;;45.75;;
23608;SDS011;11982;50.810;4.442;2023-02-22T16:32:56;89.40;;;46.88;;
23608;SDS011;11982;50.810;4.442;2023-02-22T16:35:24;88.60;;;46.33;;
23608;SDS011;11982;50.810;4.442;2023-02-22T16:37:57;90.47;;;47.85;;
23608;SDS011;11982;50.810;4.442;2023-02-22T16:40:29;86.32;;;46.80;;
23608;SDS011;11982;50.810;4.442;2023-02-22T16:43:12;99.13;;;52.13;;
23608;SDS011;11982;50.810;4.442;2023-02-22T16:45:41;97.25;;;50.25;;
23608;SDS011;11982;50.810;4.442;2023-02-22T16:51:23;105.03;;;51.47;;
23608;SDS011;11982;50.810;4.442;2023-02-22T16:53:52;105.68;;;51.47;;
23608;SDS011;11982;50.810;4.442;2023-02-22T16:56:19;104.63;;;52.13;;
23608;SDS011;11982;50.810;4.442;2023-02-22T16:58:50;108.00;;;53.60;;
23608;SDS011;11982;50.810;4.442;2023-02-22T17:01:17;106.90;;;51.90;;
23608;SDS011;11982;50.810;4.442;2023-02-22T17:03:43;103.45;;;52.70;;
23608;SDS011;11982;50.810;4.442;2023-02-22T17:06:09;108.25;;;52.60;;
23608;SDS011;11982;50.810;4.442;2023-02-22T17:08:38;117.75;;;55.92;;
23608;SDS011;11982;50.810;4.442;2023-02-22T17:11:05;114.28;;;56.47;;
23608;SDS011;11982;50.810;4.442;2023-02-22T17:13:32;116.40;;;57.28;;
23608;SDS011;11982;50.810;4.442;2023-02-22T17:15:59;117.45;;;56.50;;
23608;SDS011;11982;50.810;4.442;2023-02-22T17:18:25;115.20;;;56.30;;
23608;SDS011;11982;50.810;4.442;2023-02-22T17:20:54;114.82;;;55.58;;
23608;SDS011;11982;50.810;4.442;2023-02-22T17:23:20;131.68;;;57.53;;
23608;SDS011;11982;50.810;4.442;2023-02-22T17:25:51;122.70;;;57.40;;
23608;SDS011;11982;50.810;4.442;2023-02-22T17:28:19;127.47;;;59.25;;